Time;durP1;ratioP1;P1;durP2;ratioP2;P2;SDS_P1;SDS_P2;PMS_P1;PMS_P2;Temp;Humidity;BMP_temperature;BMP_pressure;BME280_temperature;BME280_humidity;BME280_pressure;Samples;Min_cycle;Max_cycle;Signal;HPM_P1;HPM_P2
2021/01/28 00:00:31;;;;;;;14.77;8.68;;;1.10;99.90;;;;;;5074740;28;20367;-77
2021/01/28 00:02:57;;;;;;;12.70;7.65;;;1.10;99.90;;;;;;5092813;28;20028;-77
2021/01/28 00:05:24;;;;;;;12.90;8.93;;;1.10;99.90;;;;;;5092589;28;20370;-78
2021/01/28 00:07:50;;;;;;;13.30;7.80;;;1.10;99.90;;;;;;5092684;28;20497;-76
2021/01/28 00:10:17;;;;;;;14.48;8.40;;;1.10;99.90;;;;;;5092791;28;20032;-78
2021/01/28 00:12:44;;;;;;;14.80;8.65;;;1.10;99.90;;;;;;5074629;28;20088;-79
2021/01/28 00:15:12;;;;;;;11.60;7.47;;;1.10;99.90;;;;;;5074130;28;20040;-77
2021/01/28 00:17:38;;;;;;;12.77;8.30;;;1.10;99.90;;;;;;5092755;28;20101;-78
2021/01/28 00:20:25;;;;;;;14.32;8.80;;;1.10;99.90;;;;;;5074206;28;20085;-78
2021/01/28 00:22:51;;;;;;;13.52;8.43;;;1.10;99.90;;;;;;5092496;28;20493;-78
2021/01/28 00:25:19;;;;;;;14.57;8.30;;;1.00;99.90;;;;;;5092549;28;20055;-77
2021/01/28 00:27:45;;;;;;;13.40;8.43;;;1.00;99.90;;;;;;5092433;28;20028;-77
2021/01/28 00:30:21;;;;;;;13.20;8.55;;;1.10;99.90;;;;;;5092663;28;20133;-78
2021/01/28 00:32:48;;;;;;;14.48;8.35;;;1.10;99.90;;;;;;5080168;28;20024;-77
2021/01/28 00:35:25;;;;;;;13.23;7.72;;;1.10;99.90;;;;;;5092751;28;20036;-78
2021/01/28 00:37:50;;;;;;;14.98;8.55;;;1.10;99.90;;;;;;5061235;28;20055;-76
2021/01/28 00:40:16;;;;;;;12.55;8.07;;;1.10;99.90;;;;;;5092501;28;20028;-76
2021/01/28 00:42:42;;;;;;;12.32;7.68;;;1.00;99.90;;;;;;5074101;28;20105;-77
2021/01/28 00:45:08;;;;;;;14.20;8.88;;;1.00;99.90;;;;;;5092439;28;20033;-78
2021/01/28 00:47:34;;;;;;;12.50;7.47;;;1.00;99.90;;;;;;5091979;28;20051;-77
2021/01/28 00:49:59;;;;;;;11.80;7.75;;;1.00;99.90;;;;;;5091996;28;20454;-78
2021/01/28 00:52:25;;;;;;;12.95;8.52;;;1.00;99.90;;;;;;5092468;28;20035;-78
2021/01/28 00:54:51;;;;;;;12.50;7.75;;;1.00;99.90;;;;;;5076520;28;20028;-77
2021/01/28 00:57:17;;;;;;;15.57;8.77;;;1.00;99.90;;;;;;5078266;28;20032;-78
2021/01/28 00:59:42;;;;;;;14.18;8.35;;;1.00;99.90;;;;;;5095923;28;20024;-78
2021/01/28 01:02:08;;;;;;;13.15;8.43;;;0.90;99.90;;;;;;5096092;28;20077;-78
2021/01/28 01:04:34;;;;;;;13.38;8.00;;;1.00;99.90;;;;;;5077735;28;20059;-78
2021/01/28 01:06:59;;;;;;;14.23;8.43;;;1.00;99.90;;;;;;5095639;28;20107;-77
2021/01/28 01:09:26;;;;;;;12.98;8.25;;;1.00;99.90;;;;;;5077488;28;20066;-77
2021/01/28 01:11:53;;;;;;;13.57;8.48;;;1.00;99.90;;;;;;5095833;28;20276;-78
2021/01/28 01:14:19;;;;;;;13.23;8.30;;;1.00;99.90;;;;;;5095761;28;20024;-79
2021/01/28 01:16:46;;;;;;;10.50;7.28;;;1.00;99.90;;;;;;5095481;28;20038;-78
2021/01/28 01:19:14;;;;;;;10.73;7.47;;;1.00;99.90;;;;;;5077384;28;20062;-78
2021/01/28 01:21:39;;;;;;;11.40;7.10;;;1.00;99.90;;;;;;5095427;28;20024;-78
2021/01/28 01:24:06;;;;;;;11.80;7.88;;;1.00;99.90;;;;;;5076780;28;20026;-78
2021/01/28 01:26:32;;;;;;;12.27;7.97;;;1.10;99.90;;;;;;5095523;28;20029;-78
2021/01/28 01:28:57;;;;;;;13.23;7.70;;;1.00;99.90;;;;;;5095060;28;20035;-78
2021/01/28 01:31:23;;;;;;;10.05;6.78;;;1.00;99.90;;;;;;5095496;28;20032;-78
2021/01/28 01:33:49;;;;;;;10.38;7.13;;;1.00;99.90;;;;;;5076831;28;20036;-71
2021/01/28 01:36:15;;;;;;;11.70;7.07;;;1.00;99.90;;;;;;5092781;28;20038;-78
2021/01/28 01:38:41;;;;;;;12.88;7.60;;;1.00;99.90;;;;;;5077080;28;20024;-78
2021/01/28 01:41:07;;;;;;;11.50;7.50;;;0.90;99.90;;;;;;5095230;28;20382;-78
2021/01/28 01:43:32;;;;;;;11.43;7.53;;;0.90;99.90;;;;;;5095603;28;20052;-78
2021/01/28 01:46:05;;;;;;;11.63;7.40;;;0.90;99.90;;;;;;5094745;28;20023;-79
2021/01/28 01:48:38;;;;;;;10.82;6.85;;;0.90;99.90;;;;;;5095042;28;20104;-79
2021/01/28 01:51:26;;;;;;;9.85;6.68;;;1.00;99.90;;;;;;5094745;28;20031;-78
2021/01/28 01:54:07;;;;;;;11.88;7.10;;;0.90;99.90;;;;;;5075524;28;20375;-76
2021/01/28 01:56:40;;;;;;;9.93;6.75;;;0.90;99.90;;;;;;5076942;28;20031;-79
2021/01/28 01:59:17;;;;;;;10.10;6.93;;;0.90;99.90;;;;;;5076434;28;20084;-78
2021/01/28 02:01:56;;;;;;;9.68;6.32;;;0.90;99.90;;;;;;5076452;28;20382;-79
2021/01/28 02:04:23;;;;;;;10.77;6.78;;;0.90;99.90;;;;;;5076565;28;20035;-79
2021/01/28 02:06:54;;;;;;;11.45;7.07;;;0.90;99.90;;;;;;5075519;28;20028;-79
2021/01/28 02:09:20;;;;;;;10.82;6.47;;;0.90;99.90;;;;;;5076059;28;20028;-79
2021/01/28 02:11:47;;;;;;;11.90;6.88;;;0.90;99.90;;;;;;5076395;28;20024;-78
2021/01/28 02:14:15;;;;;;;11.98;7.47;;;0.90;99.90;;;;;;5076356;28;20494;-79
2021/01/28 02:17:06;;;;;;;11.35;7.18;;;0.90;99.90;;;;;;5076207;28;20119;-78
2021/01/28 02:19:53;;;;;;;10.90;6.80;;;0.90;99.90;;;;;;5094272;28;20043;-79
2021/01/28 02:22:24;;;;;;;9.57;6.60;;;0.90;99.90;;;;;;5094267;28;20101;-79
2021/01/28 02:25:01;;;;;;;10.45;6.53;;;0.90;99.90;;;;;;5076078;28;20028;-79
2021/01/28 02:27:28;;;;;;;12.25;6.93;;;0.90;99.90;;;;;;5094311;28;20081;-79
2021/01/28 02:29:54;;;;;;;10.90;7.13;;;0.90;99.90;;;;;;5093756;28;20036;-79
2021/01/28 02:32:20;;;;;;;9.85;6.78;;;0.90;99.90;;;;;;5075944;28;20396;-79
2021/01/28 02:34:46;;;;;;;11.30;6.82;;;1.00;99.90;;;;;;5075649;28;20089;-79
2021/01/28 02:37:18;;;;;;;12.02;7.35;;;0.90;99.90;;;;;;5094349;28;20463;-80
2021/01/28 02:39:44;;;;;;;10.15;5.90;;;0.90;99.90;;;;;;5094355;28;20435;-79
2021/01/28 02:42:24;;;;;;;9.80;6.60;;;0.90;99.90;;;;;;5093613;28;20028;-79
2021/01/28 02:44:50;;;;;;;9.73;6.38;;;0.90;99.90;;;;;;5093739;28;20028;-78
2021/01/28 02:47:16;;;;;;;10.43;6.90;;;0.90;99.90;;;;;;5093684;28;20044;-77
2021/01/28 02:49:42;;;;;;;11.07;6.80;;;0.90;99.90;;;;;;5075901;28;20111;-78
2021/01/28 02:52:08;;;;;;;12.30;6.93;;;0.90;99.90;;;;;;5093386;28;20047;-79
2021/01/28 02:54:40;;;;;;;11.98;7.43;;;0.90;99.90;;;;;;5093967;28;20370;-79
2021/01/28 02:57:06;;;;;;;13.02;7.05;;;0.80;99.90;;;;;;5093618;28;20035;-79
2021/01/28 02:59:32;;;;;;;11.82;6.93;;;0.80;99.90;;;;;;5093798;28;20374;-79
2021/01/28 03:02:04;;;;;;;11.73;6.82;;;0.80;99.90;;;;;;5093264;28;20089;-78
2021/01/28 03:04:30;;;;;;;11.13;7.03;;;0.80;99.90;;;;;;5093900;28;20390;-78
2021/01/28 03:06:56;;;;;;;11.27;7.40;;;0.90;99.90;;;;;;5093809;28;20028;-77
2021/01/28 03:09:21;;;;;;;11.27;7.55;;;0.90;99.90;;;;;;5093347;28;20028;-78
2021/01/28 03:11:47;;;;;;;11.05;7.30;;;0.80;99.90;;;;;;5093861;28;20028;-77
2021/01/28 03:14:13;;;;;;;12.05;7.25;;;0.80;99.90;;;;;;5074878;28;20063;-77
2021/01/28 03:16:38;;;;;;;11.43;7.07;;;0.90;99.90;;;;;;5075497;28;20462;-78
2021/01/28 03:19:04;;;;;;;13.27;7.57;;;0.80;99.90;;;;;;5093463;28;20028;-75
2021/01/28 03:21:30;;;;;;;11.88;7.20;;;0.80;99.90;;;;;;5093389;28;20052;-79
2021/01/28 03:23:55;;;;;;;12.60;7.65;;;0.90;99.90;;;;;;5093496;28;20062;-79
2021/01/28 03:26:21;;;;;;;13.13;8.35;;;0.90;99.90;;;;;;5093110;28;20043;-79
2021/01/28 03:28:47;;;;;;;11.80;7.50;;;0.90;99.90;;;;;;5093609;28;20032;-78
2021/01/28 03:31:12;;;;;;;12.18;7.32;;;0.90;99.90;;;;;;5074364;28;20530;-79
2021/01/28 03:33:38;;;;;;;13.25;7.10;;;0.90;99.90;;;;;;5093388;28;20055;-79
2021/01/28 03:36:04;;;;;;;10.52;6.68;;;0.80;99.90;;;;;;5092981;28;20027;-78
2021/01/28 03:38:30;;;;;;;14.07;7.40;;;0.80;99.90;;;;;;5065493;28;20366;-79
2021/01/28 03:40:56;;;;;;;13.05;6.70;;;0.80;99.90;;;;;;5070626;28;20094;-79
2021/01/28 03:43:21;;;;;;;11.25;6.75;;;0.90;99.90;;;;;;5074494;28;20020;-76
2021/01/28 03:45:47;;;;;;;12.73;6.53;;;0.90;99.90;;;;;;5074951;28;20028;-78
2021/01/28 03:48:13;;;;;;;13.15;7.70;;;0.90;99.90;;;;;;5058197;28;20099;-78
2021/01/28 03:50:39;;;;;;;10.70;6.93;;;0.80;99.90;;;;;;5054515;28;20024;-77
2021/01/28 03:53:06;;;;;;;12.90;7.40;;;0.80;99.90;;;;;;5072909;28;20032;-77
2021/01/28 03:55:32;;;;;;;13.63;7.82;;;0.80;99.90;;;;;;5054632;28;20115;-76
2021/01/28 03:57:58;;;;;;;10.85;6.50;;;0.80;99.90;;;;;;5071940;28;20067;-75
2021/01/28 04:00:28;;;;;;;13.50;6.90;;;0.70;99.90;;;;;;5072179;28;20056;-75
2021/01/28 04:02:54;;;;;;;12.60;7.20;;;0.70;99.90;;;;;;5072416;28;20027;-75
2021/01/28 04:05:20;;;;;;;14.02;7.70;;;0.70;99.90;;;;;;5050774;28;20036;-75
2021/01/28 04:07:46;;;;;;;11.13;6.53;;;0.70;99.90;;;;;;5071893;28;20043;-75
2021/01/28 04:10:16;;;;;;;11.63;6.80;;;0.80;99.90;;;;;;5053695;28;20033;-76
2021/01/28 04:12:42;;;;;;;13.40;7.45;;;0.80;99.90;;;;;;5048462;28;20016;-75
2021/01/28 04:15:10;;;;;;;11.52;7.57;;;0.80;99.90;;;;;;5071982;28;20024;-75
2021/01/28 04:17:37;;;;;;;12.55;7.28;;;0.80;99.90;;;;;;5053332;28;20032;-77
2021/01/28 04:20:05;;;;;;;10.73;6.50;;;0.80;99.90;;;;;;5068651;28;20035;-76
2021/01/28 04:22:31;;;;;;;11.45;7.00;;;0.80;99.90;;;;;;5071269;28;20103;-75
2021/01/28 04:24:57;;;;;;;11.48;7.00;;;0.80;99.90;;;;;;5071463;28;20100;-76
2021/01/28 04:27:22;;;;;;;11.77;6.78;;;0.80;99.90;;;;;;5053883;28;20501;-75
2021/01/28 04:29:48;;;;;;;10.55;6.65;;;0.80;99.90;;;;;;5057097;28;20458;-81
2021/01/28 04:32:14;;;;;;;12.13;7.10;;;0.80;99.90;;;;;;5053658;28;20027;-76
2021/01/28 04:34:40;;;;;;;12.60;7.63;;;0.80;99.90;;;;;;5076092;28;20020;-82
2021/01/28 04:37:05;;;;;;;12.07;6.93;;;0.80;99.90;;;;;;5058467;28;20389;-80
2021/01/28 04:39:31;;;;;;;12.60;6.75;;;0.80;99.90;;;;;;5075961;28;20096;-82
2021/01/28 04:41:57;;;;;;;11.48;7.00;;;0.80;99.90;;;;;;5053773;28;20024;-84
2021/01/28 04:44:23;;;;;;;14.18;7.07;;;0.80;99.90;;;;;;5058259;28;20020;-84
2021/01/28 04:46:53;;;;;;;11.75;6.20;;;0.80;99.90;;;;;;5081111;28;20043;-83
2021/01/28 04:49:20;;;;;;;10.60;6.30;;;0.80;99.90;;;;;;5096587;28;20081;-83
2021/01/28 04:51:49;;;;;;;11.77;6.90;;;0.90;99.90;;;;;;5077914;28;20035;-84
2021/01/28 04:54:25;;;;;;;13.25;7.32;;;0.90;99.90;;;;;;5095660;28;20023;-84
2021/01/28 04:56:54;;;;;;;10.93;6.47;;;0.90;99.90;;;;;;5076844;28;20040;-80
2021/01/28 04:59:26;;;;;;;11.88;6.15;;;0.80;99.90;;;;;;5095655;28;20032;-81
2021/01/28 05:01:53;;;;;;;14.10;7.22;;;0.80;99.90;;;;;;5095953;28;20020;-76
2021/01/28 05:04:20;;;;;;;10.57;6.45;;;0.80;99.90;;;;;;5075202;28;20619;-77
2021/01/28 05:06:51;;;;;;;10.50;5.90;;;0.80;99.90;;;;;;5074698;28;20386;-79
2021/01/28 05:09:17;;;;;;;11.40;6.63;;;0.80;99.90;;;;;;5085198;28;20032;-80
2021/01/28 05:11:53;;;;;;;11.13;6.15;;;0.80;99.90;;;;;;5086243;28;20015;-79
2021/01/28 05:14:29;;;;;;;11.02;6.53;;;0.80;99.90;;;;;;5071752;28;20027;-78
2021/01/28 05:16:58;;;;;;;12.73;6.97;;;0.80;99.90;;;;;;5083521;28;20040;-79
2021/01/28 05:19:49;;;;;;;13.65;7.57;;;0.80;99.90;;;;;;5065049;28;20123;-75
2021/01/28 05:22:28;;;;;;;10.65;6.60;;;0.80;99.90;;;;;;5073299;28;20377;-75
2021/01/28 05:25:19;;;;;;;9.10;5.80;;;0.80;99.90;;;;;;5085668;28;20036;-76
2021/01/28 05:27:45;;;;;;;10.73;6.82;;;0.80;99.90;;;;;;5074802;28;20028;-75
2021/01/28 05:30:33;;;;;;;10.43;6.43;;;0.80;99.90;;;;;;5071962;28;20031;-75
2021/01/28 05:32:59;;;;;;;11.50;7.03;;;0.80;99.90;;;;;;5082840;28;20069;-76
2021/01/28 05:35:28;;;;;;;11.48;6.13;;;0.80;99.90;;;;;;5068735;28;20425;-77
2021/01/28 05:38:32;;;;;;;8.73;5.80;;;0.90;99.90;;;;;;5070324;28;20452;-75
2021/01/28 05:41:00;;;;;;;11.32;6.63;;;0.90;99.90;;;;;;5066511;28;20122;-75
2021/01/28 05:43:31;;;;;;;10.63;6.55;;;1.00;99.90;;;;;;5067975;28;20059;-77
2021/01/28 05:46:19;;;;;;;9.95;6.13;;;1.00;99.90;;;;;;5067039;28;20027;-75
2021/01/28 05:48:59;;;;;;;10.88;6.30;;;1.00;99.90;;;;;;5050706;28;20110;-75
2021/01/28 05:51:25;;;;;;;9.25;5.95;;;0.90;99.90;;;;;;5056987;28;20025;-75
2021/01/28 05:54:03;;;;;;;9.75;5.57;;;0.90;99.90;;;;;;5062474;28;20052;-75
2021/01/28 05:56:33;;;;;;;9.23;6.00;;;0.90;99.90;;;;;;5036998;28;20036;-75
2021/01/28 05:59:14;;;;;;;11.50;7.10;;;1.00;99.90;;;;;;5060641;28;20386;-75
2021/01/28 06:01:58;;;;;;;10.63;6.85;;;0.90;99.90;;;;;;5071407;28;20479;-74
2021/01/28 06:04:56;;;;;;;9.93;6.55;;;1.00;99.90;;;;;;5038636;28;20112;-76
2021/01/28 06:07:31;;;;;;;9.02;5.88;;;1.00;99.90;;;;;;5026298;28;20044;-76
2021/01/28 06:10:40;;;;;;;9.90;6.05;;;1.00;99.90;;;;;;5044214;28;20036;-74
2021/01/28 06:13:40;;;;;;;11.68;6.43;;;1.00;99.90;;;;;;5065471;28;20056;-75
2021/01/28 06:16:22;;;;;;;9.77;6.38;;;1.00;99.90;;;;;;5064423;28;20043;-74
2021/01/28 06:19:13;;;;;;;10.18;6.10;;;1.00;99.90;;;;;;5067911;28;20025;-76
2021/01/28 06:21:58;;;;;;;11.50;6.45;;;1.00;99.90;;;;;;5065451;28;20112;-76
2021/01/28 06:25:05;;;;;;;10.90;6.47;;;1.00;99.90;;;;;;5068147;28;20028;-76
2021/01/28 06:27:43;;;;;;;10.10;6.22;;;1.00;99.90;;;;;;5066115;28;20040;-77
2021/01/28 06:30:34;;;;;;;10.02;5.90;;;1.00;99.90;;;;;;5065081;28;20044;-78
2021/01/28 06:33:37;;;;;;;11.23;6.15;;;1.00;99.90;;;;;;5064208;28;20111;-78
2021/01/28 06:36:28;;;;;;;11.07;6.38;;;1.00;99.90;;;;;;5065934;28;20043;-80
2021/01/28 06:39:20;;;;;;;11.38;6.72;;;1.00;99.90;;;;;;5058178;28;20029;-77
2021/01/28 06:42:00;;;;;;;9.68;5.82;;;1.00;99.90;;;;;;5053018;28;20386;-75
2021/01/28 06:44:34;;;;;;;10.63;6.20;;;1.00;99.90;;;;;;5060865;28;20024;-75
2021/01/28 06:47:10;;;;;;;14.52;8.00;;;1.00;99.90;;;;;;5061657;28;20048;-74
2021/01/28 06:50:22;;;;;;;11.35;6.63;;;1.00;99.90;;;;;;5088844;28;20028;-80
2021/01/28 06:53:02;;;;;;;10.77;6.53;;;1.00;99.90;;;;;;5052679;28;20052;-80
2021/01/28 06:55:31;;;;;;;10.90;6.45;;;1.10;99.90;;;;;;5077848;28;20403;-81
2021/01/28 06:58:18;;;;;;;11.93;7.53;;;1.10;99.90;;;;;;5087084;28;20055;-80
2021/01/28 07:00:59;;;;;;;11.50;6.85;;;1.10;99.90;;;;;;5087897;28;20020;-80
2021/01/28 07:03:45;;;;;;;14.00;7.95;;;1.20;99.90;;;;;;5090287;28;20024;-80
2021/01/28 07:06:21;;;;;;;11.02;6.57;;;1.20;99.90;;;;;;5082534;28;20077;-80
2021/01/28 07:08:51;;;;;;;;;;;1.20;99.90;;;;;;5084696;28;20119;-80
2021/01/28 07:11:31;;;;;;;13.77;8.07;;;1.30;99.90;;;;;;5082103;28;19904;-81
2021/01/28 07:14:00;;;;;;;13.07;7.68;;;1.30;99.90;;;;;;5083947;28;20133;-80
2021/01/28 07:16:29;;;;;;;14.10;7.80;;;1.30;99.90;;;;;;5092042;28;20485;-79
2021/01/28 07:19:00;;;;;;;14.82;8.55;;;1.30;99.90;;;;;;5075275;28;20028;-80
2021/01/28 07:21:36;;;;;;;14.57;8.80;;;1.40;99.90;;;;;;5093534;28;20016;-80
2021/01/28 07:24:25;;;;;;;15.48;8.73;;;1.40;99.90;;;;;;5095685;28;20402;-80
2021/01/28 07:26:53;;;;;;;14.80;8.52;;;1.50;99.90;;;;;;5077492;28;20036;-80
2021/01/28 07:29:31;;;;;;;15.35;8.55;;;1.50;99.90;;;;;;5098692;28;20078;-82
2021/01/28 07:32:05;;;;;;;14.88;8.80;;;1.50;99.90;;;;;;5074736;28;20050;-80
2021/01/28 07:34:31;;;;;;;15.32;9.55;;;1.50;99.90;;;;;;5084624;28;20028;-70
2021/01/28 07:37:22;;;;;;;17.27;9.75;;;1.60;99.90;;;;;;5092980;28;20043;-70
2021/01/28 07:39:48;;;;;;;15.32;8.13;;;1.60;99.90;;;;;;5081138;28;20071;-81
2021/01/28 07:42:16;;;;;;;16.58;9.10;;;1.60;99.90;;;;;;5081707;28;20462;-79
2021/01/28 07:44:45;;;;;;;14.55;9.05;;;1.70;99.90;;;;;;5078173;28;20028;-79
2021/01/28 07:47:31;;;;;;;18.38;9.32;;;1.70;99.90;;;;;;5072024;28;20048;-78
2021/01/28 07:50:16;;;;;;;19.17;9.85;;;1.80;99.90;;;;;;5084494;28;20095;-79
2021/01/28 07:52:42;;;;;;;19.50;9.90;;;1.70;99.90;;;;;;5079629;28;20020;-79
2021/01/28 07:55:42;;;;;;;17.10;9.00;;;1.70;99.90;;;;;;5092877;28;20036;-79
2021/01/28 07:58:36;;;;;;;16.35;8.45;;;1.70;99.90;;;;;;5085141;28;20036;-79
2021/01/28 08:01:11;;;;;;;14.73;8.80;;;1.70;99.90;;;;;;5077309;28;20024;-79
2021/01/28 08:03:58;;;;;;;18.95;9.45;;;1.70;99.90;;;;;;5086434;28;20024;-79
2021/01/28 08:06:24;;;;;;;14.88;8.07;;;1.70;99.90;;;;;;5098143;28;20035;-78
2021/01/28 08:09:08;;;;;;;14.38;8.35;;;1.70;99.90;;;;;;5097303;28;20085;-80
2021/01/28 08:11:34;;;;;;;13.20;7.95;;;1.70;99.90;;;;;;5078837;28;20036;-79
2021/01/28 08:14:02;;;;;;;14.65;8.18;;;1.70;99.90;;;;;;5069728;28;20073;-79
2021/01/28 08:16:30;;;;;;;13.52;7.90;;;1.70;99.90;;;;;;5072310;28;20470;-78
2021/01/28 08:19:06;;;;;;;15.27;8.07;;;1.80;99.90;;;;;;5093210;28;20070;-73
2021/01/28 08:21:33;;;;;;;14.57;8.02;;;1.80;99.90;;;;;;5083312;28;20176;-81
2021/01/28 08:24:35;;;;;;;14.05;8.00;;;1.80;99.90;;;;;;5073893;28;20024;-79
2021/01/28 08:27:21;;;;;;;17.23;9.90;;;1.90;99.90;;;;;;5080216;28;20514;-80
2021/01/28 08:30:16;;;;;;;17.52;9.95;;;1.90;99.90;;;;;;5091442;28;20016;-80
2021/01/28 08:32:44;;;;;;;17.63;9.77;;;1.90;99.90;;;;;;5083245;28;20113;-80
2021/01/28 08:35:17;;;;;;;16.83;9.70;;;2.00;99.90;;;;;;5069763;28;20036;-80
2021/01/28 08:37:43;;;;;;;16.58;9.25;;;2.00;99.90;;;;;;5086962;28;20384;-80
2021/01/28 08:40:20;;;;;;;14.57;8.70;;;2.00;99.90;;;;;;5082792;28;20035;-80
2021/01/28 08:42:46;;;;;;;15.85;8.65;;;1.90;99.90;;;;;;5075394;28;20022;-80
2021/01/28 08:45:22;;;;;;;15.15;7.95;;;1.90;99.90;;;;;;5082171;28;20154;-80
2021/01/28 08:47:59;;;;;;;13.93;7.93;;;2.00;99.90;;;;;;5092118;28;20039;-78
2021/01/28 08:50:27;;;;;;;13.50;8.25;;;2.10;99.90;;;;;;5089777;28;20504;-81
2021/01/28 08:52:59;;;;;;;13.00;7.55;;;2.20;99.90;;;;;;5090352;28;20592;-80
2021/01/28 08:55:27;;;;;;;13.18;7.60;;;2.20;99.90;;;;;;5088507;28;20502;-80
2021/01/28 08:58:18;;;;;;;11.70;7.30;;;2.30;99.90;;;;;;5074204;28;20505;-73
2021/01/28 09:00:50;;;;;;;13.02;7.65;;;2.30;99.90;;;;;;5081648;28;20119;-81
2021/01/28 09:03:23;;;;;;;13.07;8.35;;;2.30;99.90;;;;;;5073095;28;20047;-81
2021/01/28 09:05:51;;;;;;;13.60;7.22;;;2.40;99.90;;;;;;5078253;28;20039;-74
2021/01/28 09:08:32;;;;;;;15.48;8.32;;;2.40;99.90;;;;;;5087534;28;20022;-75
2021/01/28 09:11:15;;;;;;;12.73;8.00;;;2.30;99.90;;;;;;5065268;28;20037;-74
2021/01/28 09:13:41;;;;;;;14.55;8.07;;;2.20;99.90;;;;;;5071430;28;20040;-76
2021/01/28 09:16:10;;;;;;;14.10;8.15;;;2.10;99.90;;;;;;5094704;28;20040;-75
2021/01/28 09:18:45;;;;;;;16.73;8.65;;;2.10;99.90;;;;;;5074592;28;20035;-77
2021/01/28 09:21:16;;;;;;;17.83;9.82;;;2.00;99.90;;;;;;5087792;28;20059;-72
2021/01/28 09:24:05;;;;;;;15.25;9.43;;;2.10;99.90;;;;;;5069041;28;20087;-71
2021/01/28 09:26:35;;;;;;;17.35;9.75;;;2.10;99.90;;;;;;5065323;28;20055;-73
2021/01/28 09:29:09;;;;;;;17.10;9.38;;;2.10;99.90;;;;;;5078039;28;20382;-76
2021/01/28 09:31:35;;;;;;;15.73;8.90;;;2.20;99.90;;;;;;5075489;28;20121;-81
2021/01/28 09:34:30;;;;;;;16.20;9.07;;;2.20;99.90;;;;;;5078076;28;20024;-81
2021/01/28 09:37:01;;;;;;;18.00;9.40;;;2.20;99.90;;;;;;5076046;28;20048;-93
2021/01/28 09:39:41;;;;;;;17.30;8.95;;;2.20;99.90;;;;;;5078891;28;20478;-86
2021/01/28 09:42:33;;;;;;;15.35;8.43;;;2.20;99.90;;;;;;5094928;28;20108;-86
2021/01/28 09:45:18;;;;;;;17.42;9.27;;;2.20;99.90;;;;;;5064346;28;20032;-86
2021/01/28 09:47:55;;;;;;;15.23;8.90;;;2.20;99.90;;;;;;5088781;28;20052;-85
2021/01/28 09:50:23;;;;;;;14.43;8.35;;;2.10;99.90;;;;;;5076905;28;20111;-84
2021/01/28 09:52:50;;;;;;;15.43;8.38;;;2.10;99.90;;;;;;5077358;28;20032;-84
2021/01/28 09:55:25;;;;;;;15.73;8.70;;;2.10;99.90;;;;;;5094963;28;20028;-82
2021/01/28 09:57:51;;;;;;;14.57;8.03;;;2.20;99.90;;;;;;5094872;28;20367;-84
2021/01/28 10:00:19;;;;;;;14.07;8.65;;;2.20;99.90;;;;;;5076698;28;20466;-85
2021/01/28 10:02:58;;;;;;;14.38;8.05;;;2.20;99.90;;;;;;5063367;28;20039;-85
2021/01/28 10:05:28;;;;;;;12.55;7.55;;;2.20;99.90;;;;;;5076500;28;20440;-84
2021/01/28 10:07:54;;;;;;;12.68;7.57;;;2.30;99.90;;;;;;5077159;28;20081;-84
2021/01/28 10:10:25;;;;;;;12.88;7.30;;;2.30;99.90;;;;;;5094942;28;20036;-85
2021/01/28 10:12:53;;;;;;;11.98;7.22;;;2.30;99.90;;;;;;5076461;28;20027;-85
2021/01/28 10:15:20;;;;;;;13.13;7.70;;;2.30;99.90;;;;;;5094663;28;20362;-85
2021/01/28 10:17:46;;;;;;;12.15;7.30;;;2.30;99.90;;;;;;5076315;28;20024;-85
2021/01/28 10:20:14;;;;;;;13.85;8.35;;;2.40;99.90;;;;;;5076235;28;20158;-84
2021/01/28 10:22:42;;;;;;;14.40;9.27;;;2.30;99.90;;;;;;5086209;28;20047;-82
2021/01/28 10:25:10;;;;;;;12.52;8.38;;;2.30;99.90;;;;;;5080359;28;20035;-84
2021/01/28 10:27:36;;;;;;;14.02;8.05;;;2.40;99.90;;;;;;5074648;28;20020;-83
2021/01/28 10:30:04;;;;;;;13.93;8.55;;;2.40;99.90;;;;;;5093887;28;20016;-83
2021/01/28 10:32:30;;;;;;;12.38;7.80;;;2.30;99.90;;;;;;5076047;28;20055;-85
2021/01/28 10:34:55;;;;;;;13.30;8.10;;;2.30;99.90;;;;;;5094576;28;20547;-83
2021/01/28 10:37:21;;;;;;;13.10;8.50;;;2.30;99.90;;;;;;5094608;28;20034;-83
2021/01/28 10:39:47;;;;;;;13.35;8.27;;;2.40;99.90;;;;;;5075909;28;20027;-84
2021/01/28 10:42:18;;;;;;;13.18;8.15;;;2.40;99.90;;;;;;5075595;28;20024;-83
2021/01/28 10:44:45;;;;;;;12.48;7.30;;;2.50;99.90;;;;;;5094067;28;20020;-83
2021/01/28 10:47:10;;;;;;;11.10;7.10;;;2.50;99.90;;;;;;5093629;28;20052;-83
2021/01/28 10:49:36;;;;;;;12.55;7.60;;;2.60;99.90;;;;;;5093806;28;20028;-82
2021/01/28 10:52:02;;;;;;;14.20;7.75;;;2.60;99.90;;;;;;5075389;28;20027;-82
2021/01/28 10:54:27;;;;;;;12.70;7.65;;;2.60;99.90;;;;;;5094049;28;20012;-82
2021/01/28 10:56:53;;;;;;;13.13;7.90;;;2.60;99.90;;;;;;5075574;28;20089;-82
2021/01/28 10:59:19;;;;;;;12.95;7.85;;;2.60;99.90;;;;;;5075829;28;20024;-81
2021/01/28 11:01:45;;;;;;;12.85;7.50;;;2.50;99.90;;;;;;5075761;28;20020;-81
2021/01/28 11:04:11;;;;;;;13.10;7.82;;;2.40;99.90;;;;;;5075342;28;20054;-82
2021/01/28 11:06:36;;;;;;;12.45;7.97;;;2.30;99.90;;;;;;5075643;28;20036;-83
2021/01/28 11:09:03;;;;;;;11.77;7.63;;;2.30;99.90;;;;;;5099839;28;20032;-81
2021/01/28 11:11:29;;;;;;;12.27;7.72;;;2.30;99.90;;;;;;5097858;28;20373;-81
2021/01/28 11:13:55;;;;;;;12.82;8.38;;;2.30;99.90;;;;;;5093308;28;20028;-81
2021/01/28 11:16:24;;;;;;;14.13;7.40;;;2.20;99.90;;;;;;5093333;28;20482;-83
2021/01/28 11:18:52;;;;;;;16.00;8.52;;;2.20;99.90;;;;;;5075364;28;20024;-82
2021/01/28 11:21:19;;;;;;;11.80;7.65;;;2.20;99.90;;;;;;5075226;28;20026;-82
2021/01/28 11:23:44;;;;;;;14.93;8.20;;;2.20;99.90;;;;;;5093694;28;20070;-81
2021/01/28 11:26:10;;;;;;;13.68;8.25;;;2.10;99.90;;;;;;5074638;28;20052;-81
2021/01/28 11:28:36;;;;;;;14.75;8.43;;;2.10;99.90;;;;;;5075433;28;20089;-81
2021/01/28 11:31:02;;;;;;;14.35;7.85;;;2.10;99.90;;;;;;5093106;28;20031;-80
2021/01/28 11:33:28;;;;;;;14.55;8.20;;;2.10;99.90;;;;;;5093160;28;20042;-81
2021/01/28 11:35:53;;;;;;;15.75;8.95;;;2.10;99.90;;;;;;5074839;28;20024;-80
2021/01/28 11:38:19;;;;;;;15.02;8.90;;;2.10;99.90;;;;;;5093153;28;20012;-80
2021/01/28 11:40:45;;;;;;;13.88;8.70;;;2.10;99.90;;;;;;5093204;28;20028;-81
2021/01/28 11:43:10;;;;;;;15.65;8.50;;;2.10;99.90;;;;;;5074984;28;20058;-81
2021/01/28 11:45:36;;;;;;;15.60;8.38;;;2.10;99.90;;;;;;5093079;28;20035;-81
2021/01/28 11:48:05;;;;;;;15.02;9.50;;;2.10;99.90;;;;;;5074781;28;20052;-81
2021/01/28 11:50:31;;;;;;;15.57;8.95;;;2.10;99.90;;;;;;5074979;28;20031;-82
2021/01/28 11:52:56;;;;;;;18.38;9.88;;;2.10;99.90;;;;;;5093437;28;20034;-82
2021/01/28 11:55:24;;;;;;;16.30;9.57;;;2.00;99.90;;;;;;5074804;28;20147;-81
2021/01/28 11:57:51;;;;;;;17.15;10.13;;;2.00;99.90;;;;;;5093158;28;20024;-79
2021/01/28 12:00:18;;;;;;;15.98;9.55;;;2.00;99.90;;;;;;5075091;28;20025;-81
2021/01/28 12:02:44;;;;;;;17.25;9.88;;;2.00;99.90;;;;;;5074795;28;20463;-81
2021/01/28 12:05:11;;;;;;;16.92;10.10;;;1.90;99.90;;;;;;5074883;28;20039;-82
2021/01/28 12:07:37;;;;;;;17.77;10.13;;;1.90;99.90;;;;;;5093183;28;20358;-81
2021/01/28 12:10:10;;;;;;;19.85;10.18;;;1.90;99.90;;;;;;5074458;28;20024;-81
2021/01/28 12:12:37;;;;;;;16.17;9.65;;;1.90;99.90;;;;;;5092898;28;20028;-80
2021/01/28 12:15:07;;;;;;;16.33;9.30;;;1.90;99.90;;;;;;5093003;28;20439;-81
2021/01/28 12:17:33;;;;;;;17.25;9.65;;;1.90;99.90;;;;;;5074579;28;20028;-81
2021/01/28 12:19:59;;;;;;;22.17;11.02;;;1.90;99.90;;;;;;5093208;28;20032;-81
2021/01/28 12:22:24;;;;;;;19.27;10.52;;;1.90;99.90;;;;;;5102659;28;20020;-80
2021/01/28 12:24:50;;;;;;;21.63;10.98;;;1.90;99.90;;;;;;5092487;28;20024;-81
2021/01/28 12:27:16;;;;;;;19.52;10.93;;;2.00;99.90;;;;;;5092804;28;20043;-82
2021/01/28 12:29:42;;;;;;;16.80;9.75;;;2.00;99.90;;;;;;5074699;28;20438;-83
2021/01/28 12:32:09;;;;;;;16.00;9.23;;;2.10;99.90;;;;;;5074342;28;20024;-83
2021/01/28 12:34:35;;;;;;;16.88;9.98;;;2.10;99.90;;;;;;5074342;28;20386;-82
2021/01/28 12:37:02;;;;;;;16.15;9.60;;;2.10;99.90;;;;;;5092761;28;20105;-83
2021/01/28 12:39:28;;;;;;;17.15;10.13;;;2.10;99.90;;;;;;5074831;28;20119;-83
2021/01/28 12:41:53;;;;;;;15.13;8.70;;;2.10;99.90;;;;;;5092422;28;20422;-83
2021/01/28 12:44:19;;;;;;;18.42;9.10;;;2.10;99.90;;;;;;5074512;28;20021;-83
2021/01/28 12:46:45;;;;;;;15.13;8.35;;;2.00;99.90;;;;;;5074510;28;20083;-84
2021/01/28 12:49:10;;;;;;;14.20;8.25;;;2.00;99.90;;;;;;5074209;28;20474;-84
2021/01/28 12:51:36;;;;;;;16.27;8.90;;;2.00;99.90;;;;;;5078172;28;20020;-83
2021/01/28 12:54:02;;;;;;;14.90;8.73;;;2.00;99.90;;;;;;5077752;28;20455;-84
2021/01/28 12:56:28;;;;;;;13.68;8.30;;;2.00;99.90;;;;;;5096290;28;20062;-85
2021/01/28 12:58:53;;;;;;;16.85;8.45;;;2.00;99.90;;;;;;5096241;28;20020;-83
2021/01/28 13:01:20;;;;;;;14.75;9.18;;;1.90;99.90;;;;;;5077865;28;20102;-83
2021/01/28 13:03:46;;;;;;;15.82;8.38;;;1.90;99.90;;;;;;5077624;28;20106;-78
2021/01/28 13:06:12;;;;;;;16.70;8.95;;;1.90;99.90;;;;;;5095770;28;20442;-84
2021/01/28 13:08:41;;;;;;;14.95;8.75;;;1.90;99.90;;;;;;5096661;28;20115;-83